Time;durP1;ratioP1;P1;durP2;ratioP2;P2;SDS_P1;SDS_P2;PMS_P1;PMS_P2;Temp;Humidity;BMP_temperature;BMP_pressure;BME280_temperature;BME280_humidity;BME280_pressure;Samples;Min_cycle;Max_cycle;Signal;HPM_P1;HPM_P2
2021/12/07 00:01:43;;;;;;;44.28;19.40;;;2.10;99.90;;;;;;4995953;28;20045;-81
2021/12/07 00:04:09;;;;;;;47.75;18.80;;;2.10;99.90;;;;;;5011436;28;20629;-81
2021/12/07 00:06:36;;;;;;;43.00;18.88;;;2.00;99.90;;;;;;4980215;28;20140;-82
2021/12/07 00:09:06;;;;;;;47.50;20.08;;;2.00;99.90;;;;;;4982779;28;20525;-82
2021/12/07 00:11:32;;;;;;;49.60;20.25;;;1.90;99.90;;;;;;5011605;28;20417;-81
2021/12/07 00:13:58;;;;;;;45.85;19.13;;;1.90;99.90;;;;;;5012593;28;20094;-81
2021/12/07 00:16:25;;;;;;;51.63;19.80;;;1.90;99.90;;;;;;5011774;28;20520;-82
2021/12/07 00:18:51;;;;;;;43.17;19.10;;;1.90;99.90;;;;;;5012016;28;20054;-82
2021/12/07 00:21:19;;;;;;;45.65;18.52;;;1.90;99.90;;;;;;5007685;28;20056;-82
2021/12/07 00:23:47;;;;;;;49.10;19.98;;;1.90;99.90;;;;;;4994995;28;20045;-82
2021/12/07 00:26:14;;;;;;;50.88;19.90;;;1.90;99.90;;;;;;4992894;28;20049;-82
2021/12/07 00:28:41;;;;;;;54.40;20.52;;;1.90;99.90;;;;;;5011526;28;20053;-82
2021/12/07 00:31:25;;;;;;;51.63;20.13;;;1.90;99.90;;;;;;5011610;28;20089;-82
2021/12/07 00:34:09;;;;;;;45.75;19.60;;;1.90;99.90;;;;;;5012429;28;20558;-82
2021/12/07 00:36:44;;;;;;;53.42;20.65;;;1.90;99.90;;;;;;5012169;28;20099;-82
2021/12/07 00:39:14;;;;;;;47.90;21.10;;;1.90;99.90;;;;;;4994340;28;20041;-83
2021/12/07 00:41:40;;;;;;;49.25;19.35;;;1.80;99.90;;;;;;5012163;28;20049;-83
2021/12/07 00:44:07;;;;;;;53.10;20.30;;;1.80;99.90;;;;;;4995072;28;20395;-83
2021/12/07 00:46:33;;;;;;;42.97;19.67;;;1.80;99.90;;;;;;4995709;28;20045;-83
2021/12/07 00:48:59;;;;;;;43.97;18.73;;;1.80;99.90;;;;;;4995403;28;20052;-83
2021/12/07 00:51:25;;;;;;;54.50;21.13;;;1.70;99.90;;;;;;4979165;28;20773;-83
2021/12/07 00:53:52;;;;;;;47.47;19.10;;;1.70;99.90;;;;;;5008983;28;20064;-83
2021/12/07 00:56:18;;;;;;;52.58;19.75;;;1.70;99.90;;;;;;4995313;28;20052;-83
2021/12/07 00:58:43;;;;;;;56.88;21.73;;;1.50;99.90;;;;;;5012086;28;20045;-84
2021/12/07 01:01:13;;;;;;;48.05;19.98;;;1.60;99.90;;;;;;4994931;28;20081;-83
2021/12/07 01:03:40;;;;;;;41.70;18.70;;;1.40;99.90;;;;;;4994469;28;20099;-84
2021/12/07 01:09:05;;;;;;;47.20;19.33;;;1.20;99.90;;;;;;5018342;28;20053;-83
2021/12/07 01:25:21;;;;;;;53.30;19.67;;;0.90;99.90;;;;;;5003668;28;20064;-83
2021/12/07 01:27:50;;;;;;;42.78;18.42;;;0.90;99.90;;;;;;5000851;28;20498;-83
2021/12/07 01:30:30;;;;;;;48.55;19.30;;;0.80;99.90;;;;;;5001438;28;20037;-83
2021/12/07 01:35:57;;;;;;;46.53;17.67;;;0.90;99.90;;;;;;5001651;28;20068;-82
2021/12/07 01:39:27;;;;;;;43.80;18.38;;;0.90;99.90;;;;;;5001121;28;20115;-82
2021/12/07 01:59:59;;;;;;;42.85;19.13;;;0.80;99.90;;;;;;5017763;28;20053;-83
2021/12/07 02:02:28;;;;;;;70.68;19.13;;;0.80;99.90;;;;;;5017569;28;20045;-83
2021/12/07 02:04:55;;;;;;;53.90;19.13;;;0.80;99.90;;;;;;5017211;28;20045;-83
2021/12/07 02:07:23;;;;;;;47.78;18.67;;;0.70;99.90;;;;;;5017118;28;20060;-84
2021/12/07 02:09:53;;;;;;;58.20;18.77;;;0.70;99.90;;;;;;5017600;28;20107;-84
2021/12/07 02:12:19;;;;;;;43.05;18.65;;;0.70;99.90;;;;;;4990866;28;20052;-84
2021/12/07 02:14:45;;;;;;;50.55;17.48;;;0.70;99.90;;;;;;4975240;28;20050;-85
2021/12/07 02:17:15;;;;;;;50.88;18.33;;;0.70;99.90;;;;;;4990118;28;20045;-85
2021/12/07 02:19:41;;;;;;;40.53;16.92;;;0.80;99.90;;;;;;5003596;28;20049;-85
2021/12/07 02:22:10;;;;;;;41.58;18.33;;;0.70;99.90;;;;;;5011123;28;20054;-86
2021/12/07 02:24:36;;;;;;;53.60;19.08;;;0.80;99.90;;;;;;5013513;28;20215;-85
2021/12/07 02:27:04;;;;;;;47.92;17.55;;;0.80;99.90;;;;;;4981907;28;20568;-86
2021/12/07 02:29:30;;;;;;;42.75;17.38;;;0.80;99.90;;;;;;4997403;28;20080;-84
2021/12/07 02:31:57;;;;;;;38.75;16.95;;;0.80;99.90;;;;;;4998217;28;20041;-84
2021/12/07 02:34:24;;;;;;;39.67;16.50;;;0.80;99.90;;;;;;4994792;28;20061;-84
2021/12/07 02:36:53;;;;;;;46.10;17.27;;;0.80;99.90;;;;;;4992213;28;20045;-84
2021/12/07 02:39:27;;;;;;;33.15;15.48;;;0.90;99.90;;;;;;5012719;28;20033;-83
2021/12/07 02:41:53;;;;;;;40.75;16.67;;;0.80;99.90;;;;;;4998222;28;20125;-84
2021/12/07 02:46:54;;;;;;;44.80;17.75;;;0.80;99.90;;;;;;5440446;22;20126;-75
2021/12/07 02:49:21;;;;;;;41.67;17.15;;;0.80;99.90;;;;;;5057428;28;20041;-76
2021/12/07 02:51:47;;;;;;;42.00;18.65;;;0.80;99.90;;;;;;5071316;28;20044;-73
2021/12/07 02:54:12;;;;;;;42.75;18.33;;;0.80;99.90;;;;;;5058451;28;20049;-74
2021/12/07 02:56:38;;;;;;;43.28;18.10;;;0.80;99.90;;;;;;5060086;28;20160;-77
2021/12/07 02:59:04;;;;;;;50.15;19.23;;;0.80;99.90;;;;;;5072487;28;20451;-70
2021/12/07 03:01:35;;;;;;;49.47;18.73;;;0.90;99.90;;;;;;5066816;28;20048;-73
2021/12/07 03:04:23;;;;;;;53.20;19.45;;;0.90;99.90;;;;;;5043549;28;20044;-73
2021/12/07 03:28:25;;;;;;;47.53;18.80;;;0.90;99.90;;;;;;5049927;28;20064;-76
2021/12/07 03:30:51;;;;;;;59.58;20.48;;;0.90;99.90;;;;;;5051162;28;20460;-74
2021/12/07 03:33:16;;;;;;;50.65;19.65;;;0.90;99.90;;;;;;5051677;28;20106;-74
2021/12/07 03:35:42;;;;;;;50.50;19.48;;;0.80;99.90;;;;;;5049714;28;20122;-78
2021/12/07 03:38:09;;;;;;;54.88;19.77;;;0.80;99.90;;;;;;5059569;28;20052;-74
2021/12/07 03:40:36;;;;;;;48.40;18.45;;;0.90;99.90;;;;;;5053518;28;20087;-74
2021/12/07 03:43:04;;;;;;;52.55;19.17;;;0.80;99.90;;;;;;5049640;28;20402;-74
2021/12/07 03:45:32;;;;;;;48.55;18.48;;;0.80;99.90;;;;;;5086956;28;20091;-75
2021/12/07 03:47:59;;;;;;;50.95;18.83;;;0.80;99.90;;;;;;5052178;28;20048;-75
2021/12/07 03:50:25;;;;;;;53.95;19.60;;;0.80;99.90;;;;;;5059520;28;20056;-84
2021/12/07 03:52:52;;;;;;;47.95;18.45;;;0.80;99.90;;;;;;5055832;28;20119;-75
2021/12/07 03:55:18;;;;;;;55.85;19.17;;;0.80;99.90;;;;;;5060757;28;20099;-77
2021/12/07 03:57:44;;;;;;;50.92;18.65;;;0.70;99.90;;;;;;5064674;28;20083;-78
2021/12/07 04:00:14;;;;;;;50.08;18.67;;;0.70;99.90;;;;;;5052771;28;20048;-75
2021/12/07 04:02:41;;;;;;;52.28;18.52;;;0.70;99.90;;;;;;5050441;28;20084;-76
2021/12/07 04:05:15;;;;;;;52.30;18.25;;;0.70;99.90;;;;;;5046880;28;20398;-75
2021/12/07 04:07:41;;;;;;;53.95;18.42;;;0.70;99.90;;;;;;5048610;28;20386;-75
2021/12/07 04:10:10;;;;;;;53.67;19.20;;;0.70;99.90;;;;;;5050307;28;20119;-75
2021/12/07 04:12:35;;;;;;;48.67;17.75;;;0.80;99.90;;;;;;5049693;28;20068;-75
2021/12/07 04:15:02;;;;;;;49.58;18.15;;;0.70;99.90;;;;;;5050269;28;20052;-75
2021/12/07 04:17:28;;;;;;;53.38;17.92;;;0.70;99.90;;;;;;5055879;28;20052;-83
2021/12/07 04:19:54;;;;;;;55.45;17.25;;;0.70;99.90;;;;;;5052363;28;20639;-75
2021/12/07 04:22:19;;;;;;;48.17;16.73;;;0.70;99.90;;;;;;5048806;28;20076;-78
2021/12/07 04:24:45;;;;;;;61.63;19.88;;;0.70;99.90;;;;;;5050515;28;20041;-75
2021/12/07 04:27:11;;;;;;;50.63;18.13;;;0.70;99.90;;;;;;5062468;28;20044;-75
2021/12/07 04:29:37;;;;;;;73.88;20.17;;;0.70;99.90;;;;;;5067925;28;20044;-73
2021/12/07 04:32:03;;;;;;;49.85;17.60;;;0.70;99.90;;;;;;5067967;28;20055;-76
2021/12/07 04:34:29;;;;;;;54.33;17.52;;;0.70;99.90;;;;;;5051899;28;20118;-76
2021/12/07 04:36:54;;;;;;;46.33;16.73;;;0.70;99.90;;;;;;5067199;28;20062;-75
2021/12/07 04:39:20;;;;;;;49.47;17.73;;;0.70;99.90;;;;;;5050172;28;20052;-73
2021/12/07 04:41:48;;;;;;;47.65;17.05;;;0.60;99.90;;;;;;5049414;28;20037;-73
2021/12/07 04:44:14;;;;;;;49.00;17.10;;;0.60;99.90;;;;;;5062527;28;20567;-74
2021/12/07 05:00:07;;;;;;;48.45;16.50;;;0.80;99.90;;;;;;5048729;28;20128;-73
2021/12/07 05:02:35;;;;;;;47.15;15.20;;;0.80;99.90;;;;;;5049961;28;20033;-81
2021/12/07 05:05:01;;;;;;;42.65;14.68;;;0.70;99.90;;;;;;5062878;28;20052;-73
2021/12/07 05:07:37;;;;;;;45.85;15.05;;;0.70;99.90;;;;;;5057341;28;20425;-73
2021/12/07 05:10:20;;;;;;;46.75;16.60;;;0.80;99.90;;;;;;5019374;28;20052;-73
2021/12/07 05:15:27;;;;;;;43.00;14.10;;;0.80;99.90;;;;;;5050614;28;20063;-75
2021/12/07 05:39:33;;;;;;;37.78;11.82;;;0.80;99.90;;;;;;5052633;28;20131;-75
2021/12/07 05:41:59;;;;;;;38.63;13.35;;;0.80;99.90;;;;;;5067695;28;20147;-75
2021/12/07 05:44:25;;;;;;;37.67;12.32;;;0.80;99.90;;;;;;5078516;28;20140;-81
2021/12/07 05:46:50;;;;;;;37.60;12.20;;;0.80;99.90;;;;;;5068388;28;20060;-75
2021/12/07 05:49:16;;;;;;;39.95;12.57;;;0.80;99.90;;;;;;5067887;28;20056;-75
2021/12/07 05:51:42;;;;;;;37.30;12.77;;;0.80;99.90;;;;;;5053257;28;20048;-75
2021/12/07 05:54:08;;;;;;;37.13;11.57;;;0.80;99.90;;;;;;5057353;28;20179;-75
2021/12/07 05:56:34;;;;;;;35.22;11.80;;;0.80;99.90;;;;;;5064782;28;20127;-75
2021/12/07 05:58:59;;;;;;;40.40;13.02;;;0.80;99.90;;;;;;5069303;28;20482;-78
2021/12/07 06:01:25;;;;;;;35.88;12.88;;;0.80;99.90;;;;;;5043813;28;20060;-75
2021/12/07 06:03:51;;;;;;;36.70;12.43;;;0.90;99.90;;;;;;5055936;28;20037;-75
2021/12/07 06:06:16;;;;;;;36.65;12.27;;;0.90;99.90;;;;;;5054529;28;20055;-75
2021/12/07 06:08:42;;;;;;;38.85;13.75;;;0.90;99.90;;;;;;5036511;28;20102;-80
2021/12/07 06:11:08;;;;;;;37.83;12.98;;;1.00;99.90;;;;;;5070609;28;20059;-76
2021/12/07 06:13:35;;;;;;;35.95;12.70;;;1.00;99.90;;;;;;5051851;28;20569;-73
2021/12/07 06:16:06;;;;;;;51.22;14.07;;;1.00;99.90;;;;;;5058957;28;20131;-73
2021/12/07 06:18:32;;;;;;;32.42;11.88;;;1.10;99.90;;;;;;5071771;28;20546;-73
2021/12/07 06:20:57;;;;;;;36.60;11.80;;;1.10;99.90;;;;;;5054333;28;20690;-73
2021/12/07 06:23:23;;;;;;;36.85;12.32;;;1.10;99.90;;;;;;5071288;28;20044;-73
2021/12/07 06:25:49;;;;;;;29.30;11.45;;;1.10;99.90;;;;;;5071746;28;20156;-72
2021/12/07 06:28:16;;;;;;;37.58;12.32;;;1.20;99.90;;;;;;5072415;28;20581;-73
2021/12/07 06:30:44;;;;;;;33.83;12.23;;;1.20;99.90;;;;;;5056006;28;20056;-73
2021/12/07 06:33:11;;;;;;;37.83;12.25;;;1.20;99.90;;;;;;5074075;28;20091;-74
2021/12/07 06:35:37;;;;;;;38.90;12.73;;;1.20;99.90;;;;;;5071401;28;20075;-73
2021/12/07 06:38:02;;;;;;;41.28;13.85;;;1.20;99.90;;;;;;5068426;28;20086;-75
2021/12/07 06:40:28;;;;;;;42.50;14.18;;;1.20;99.90;;;;;;5069005;28;20553;-74
2021/12/07 06:42:59;;;;;;;37.13;13.23;;;1.10;99.90;;;;;;5071553;28;20409;-74
2021/12/07 06:45:26;;;;;;;38.78;12.80;;;1.10;99.90;;;;;;5070781;28;20056;-74
2021/12/07 06:47:53;;;;;;;32.55;11.48;;;1.10;99.90;;;;;;5071675;28;20517;-74
2021/12/07 06:50:20;;;;;;;43.00;11.82;;;1.00;99.90;;;;;;5071211;28;20052;-72
2021/12/07 06:52:46;;;;;;;39.75;14.07;;;1.10;99.90;;;;;;5068741;28;20098;-90
2021/12/07 06:55:11;;;;;;;34.60;12.65;;;1.10;99.90;;;;;;5024023;28;20393;-73
2021/12/07 06:57:37;;;;;;;38.33;13.57;;;1.20;99.90;;;;;;5041306;28;20421;-73
2021/12/07 07:00:07;;;;;;;36.75;12.23;;;1.20;99.90;;;;;;5056049;28;20044;-79
2021/12/07 07:02:33;;;;;;;38.67;12.68;;;1.20;99.90;;;;;;5053419;28;20051;-74
2021/12/07 07:04:59;;;;;;;38.03;12.38;;;1.20;99.90;;;;;;5053460;28;20048;-73
2021/12/07 07:07:24;;;;;;;36.25;11.25;;;1.20;99.90;;;;;;5070825;28;20406;-76
2021/12/07 07:09:51;;;;;;;45.88;12.77;;;1.20;99.90;;;;;;5070189;28;20567;-81
2021/12/07 07:12:17;;;;;;;43.03;13.45;;;1.20;99.90;;;;;;5053797;28;20045;-73
2021/12/07 07:14:43;;;;;;;43.72;13.35;;;1.10;99.90;;;;;;5070950;28;20056;-75
2021/12/07 07:17:09;;;;;;;39.17;11.90;;;1.20;99.90;;;;;;5070313;28;20048;-73
2021/12/07 07:19:34;;;;;;;48.08;16.00;;;1.20;99.90;;;;;;5071620;28;20059;-75
2021/12/07 07:22:02;;;;;;;53.22;15.40;;;1.20;99.90;;;;;;5071043;28;20044;-76
2021/12/07 07:24:32;;;;;;;50.15;13.95;;;1.20;99.90;;;;;;5070437;28;20049;-73
2021/12/07 07:26:59;;;;;;;41.42;14.23;;;1.10;99.90;;;;;;5037198;28;20520;-73
2021/12/07 07:29:25;;;;;;;68.43;22.92;;;1.20;99.90;;;;;;5053891;28;20053;-73
2021/12/07 07:31:50;;;;;;;52.75;14.93;;;1.20;99.90;;;;;;5053727;28;20500;-81
2021/12/07 07:34:17;;;;;;;41.90;13.40;;;1.20;99.90;;;;;;5069936;28;20157;-73
2021/12/07 07:36:43;;;;;;;55.25;17.63;;;1.30;99.90;;;;;;5037210;28;20048;-77
2021/12/07 07:39:09;;;;;;;60.03;15.45;;;1.30;99.90;;;;;;5069608;28;20149;-74
2021/12/07 07:41:35;;;;;;;43.75;13.77;;;1.20;99.90;;;;;;5053569;28;20048;-73
2021/12/07 07:44:01;;;;;;;41.03;13.90;;;1.30;99.90;;;;;;5053121;28;20048;-73
2021/12/07 07:46:27;;;;;;;48.88;13.45;;;1.20;99.90;;;;;;5071479;28;20094;-73
2021/12/07 07:48:53;;;;;;;41.38;12.07;;;1.10;99.90;;;;;;5070145;28;20049;-82
2021/12/07 07:51:19;;;;;;;44.53;12.95;;;1.10;99.90;;;;;;5053773;28;20719;-74
2021/12/07 07:53:45;;;;;;;43.35;12.77;;;1.00;99.90;;;;;;5070084;28;20122;-74
2021/12/07 07:56:11;;;;;;;41.00;12.60;;;1.00;99.90;;;;;;5052992;28;20055;-73
2021/12/07 07:58:37;;;;;;;45.92;14.10;;;1.00;99.90;;;;;;5070143;28;20048;-73
2021/12/07 08:01:04;;;;;;;48.25;13.63;;;0.90;99.90;;;;;;5069620;28;20515;-74
2021/12/07 08:03:30;;;;;;;46.92;12.55;;;0.90;99.90;;;;;;5053680;28;20041;-75
2021/12/07 08:05:56;;;;;;;54.60;13.32;;;0.90;99.90;;;;;;5064061;28;20131;-80
2021/12/07 08:08:22;;;;;;;58.42;13.15;;;0.80;99.90;;;;;;5090626;28;20131;-76
2021/12/07 08:10:48;;;;;;;50.53;13.93;;;0.80;99.90;;;;;;5070061;28;20057;-75
2021/12/07 08:13:14;;;;;;;56.00;14.20;;;0.80;99.90;;;;;;5053128;28;20056;-73
2021/12/07 08:15:43;;;;;;;63.33;14.52;;;0.80;99.90;;;;;;5070831;28;20048;-74
2021/12/07 08:18:10;;;;;;;51.80;14.02;;;0.70;99.90;;;;;;5070602;28;20048;-74
2021/12/07 08:20:37;;;;;;;50.85;13.98;;;0.70;99.90;;;;;;5053511;28;20048;-74
2021/12/07 08:23:04;;;;;;;49.65;13.35;;;0.70;99.90;;;;;;5068772;28;20102;-79
2021/12/07 08:25:35;;;;;;;46.92;14.23;;;0.70;99.90;;;;;;5069263;28;20044;-76
2021/12/07 08:28:01;;;;;;;48.53;13.82;;;0.70;99.90;;;;;;5070324;28;20051;-73
2021/12/07 08:30:27;;;;;;;41.95;12.88;;;0.70;99.90;;;;;;5070501;28;20677;-73
2021/12/07 08:32:53;;;;;;;49.60;13.38;;;0.70;99.90;;;;;;5070191;28;20486;-75
2021/12/07 08:35:20;;;;;;;39.33;12.80;;;0.80;99.90;;;;;;5069995;28;20055;-73
2021/12/07 08:37:46;;;;;;;49.88;14.27;;;0.80;99.90;;;;;;5071622;28;20044;-74
2021/12/07 08:40:16;;;;;;;43.30;13.13;;;0.80;99.90;;;;;;5053532;28;20040;-73
2021/12/07 08:42:42;;;;;;;44.72;13.40;;;0.80;99.90;;;;;;5071409;28;20044;-73
2021/12/07 08:45:09;;;;;;;50.67;14.15;;;0.80;99.90;;;;;;5070242;28;20064;-74
2021/12/07 08:47:35;;;;;;;55.05;14.23;;;0.80;99.90;;;;;;5037000;28;20134;-77
2021/12/07 08:50:06;;;;;;;57.72;14.63;;;0.80;99.90;;;;;;5070208;28;20052;-74
2021/12/07 08:52:31;;;;;;;66.50;16.98;;;0.80;99.90;;;;;;5070271;28;20374;-74
2021/12/07 09:00:34;;;;;;;49.67;13.77;;;0.90;99.90;;;;;;5055923;28;20114;-74
2021/12/07 09:03:00;;;;;;;40.45;13.43;;;0.90;99.90;;;;;;5070054;28;20409;-76
2021/12/07 09:05:26;;;;;;;46.22;13.30;;;0.90;99.90;;;;;;5070039;28;20041;-73
2021/12/07 09:07:52;;;;;;;40.97;13.15;;;1.00;99.90;;;;;;5070458;28;20049;-74
2021/12/07 09:10:18;;;;;;;46.30;12.57;;;1.00;99.90;;;;;;5069865;28;20052;-75
2021/12/07 09:12:44;;;;;;;51.72;14.32;;;1.10;99.90;;;;;;5070294;28;20067;-74
2021/12/07 09:15:11;;;;;;;50.47;13.48;;;1.20;99.90;;;;;;5069645;28;20044;-74
2021/12/07 09:17:37;;;;;;;45.03;13.55;;;1.20;99.90;;;;;;5053341;28;20143;-74
2021/12/07 09:20:07;;;;;;;42.92;13.10;;;1.20;99.90;;;;;;5069845;28;20147;-83
2021/12/07 09:22:32;;;;;;;49.45;12.30;;;1.30;99.90;;;;;;5053532;28;20137;-74
2021/12/07 09:24:58;;;;;;;50.95;12.95;;;1.30;99.90;;;;;;5071571;28;20478;-74
2021/12/07 09:27:24;;;;;;;42.10;13.00;;;1.40;99.90;;;;;;5073849;28;20178;-76
2021/12/07 09:29:50;;;;;;;39.00;12.05;;;1.40;99.90;;;;;;5073615;28;20048;-74
2021/12/07 09:32:16;;;;;;;40.60;12.43;;;1.40;99.90;;;;;;5038892;28;20048;-74
2021/12/07 09:34:42;;;;;;;38.55;11.50;;;1.50;99.90;;;;;;5073439;28;20557;-74
2021/12/07 09:37:08;;;;;;;38.22;11.85;;;1.60;99.90;;;;;;5074395;28;20059;-73
2021/12/07 09:39:34;;;;;;;40.10;11.73;;;1.60;99.90;;;;;;5073549;28;20052;-75
2021/12/07 09:41:59;;;;;;;40.45;10.68;;;1.70;99.90;;;;;;5074563;28;20170;-77
2021/12/07 09:44:25;;;;;;;40.45;11.95;;;1.80;99.90;;;;;;5072654;28;20040;-74
2021/12/07 09:46:51;;;;;;;35.53;11.82;;;1.80;99.90;;;;;;5056566;28;20056;-74
2021/12/07 09:49:17;;;;;;;38.63;12.18;;;1.90;99.90;;;;;;5072981;28;20130;-73
2021/12/07 09:51:43;;;;;;;38.28;11.30;;;2.00;99.90;;;;;;5073747;28;20059;-75
2021/12/07 09:54:09;;;;;;;31.90;11.38;;;2.00;99.90;;;;;;5040051;28;20074;-74
2021/12/07 09:56:37;;;;;;;38.50;11.20;;;2.00;99.90;;;;;;5073309;28;20087;-74
2021/12/07 09:59:05;;;;;;;37.25;10.43;;;2.10;99.90;;;;;;5072430;28;20088;-75
2021/12/07 10:01:31;;;;;;;35.92;11.15;;;2.10;99.90;;;;;;5072369;28;20102;-73
2021/12/07 10:03:57;;;;;;;34.22;10.45;;;2.10;99.90;;;;;;5073355;28;20052;-73
2021/12/07 10:06:24;;;;;;;39.15;10.95;;;2.30;99.90;;;;;;5072936;28;20689;-74
2021/12/07 10:08:50;;;;;;;32.80;9.80;;;2.30;99.90;;;;;;5056296;28;20132;-73
2021/12/07 10:11:16;;;;;;;32.47;10.63;;;2.40;99.90;;;;;;5072663;28;20468;-73
2021/12/07 10:13:45;;;;;;;26.50;9.05;;;2.50;99.90;;;;;;5072812;28;20139;-73
2021/12/07 10:16:13;;;;;;;33.28;10.82;;;2.50;99.90;;;;;;5073827;28;20040;-85
2021/12/07 10:18:41;;;;;;;29.67;9.07;;;2.50;99.90;;;;;;5056348;28;20114;-73
2021/12/07 10:21:27;;;;;;;27.02;9.93;;;2.50;99.90;;;;;;5056594;28;20052;-76
2021/12/07 10:24:01;;;;;;;35.50;10.13;;;2.50;99.90;;;;;;5072486;28;20055;-80
2021/12/07 10:26:33;;;;;;;28.33;9.68;;;2.60;99.90;;;;;;5071372;28;20147;-74
2021/12/07 10:29:07;;;;;;;30.05;9.15;;;2.80;99.90;;;;;;5072088;28;20091;-74
2021/12/07 10:31:49;;;;;;;26.20;8.93;;;3.00;99.90;;;;;;5071869;28;20513;-75
2021/12/07 10:34:20;;;;;;;37.47;9.98;;;3.00;99.90;;;;;;5072866;28;20480;-76
2021/12/07 10:36:56;;;;;;;30.45;10.65;;;3.00;99.90;;;;;;5054788;28;20056;-74
2021/12/07 10:39:25;;;;;;;;;;;3.00;99.90;;;;;;5072110;28;20045;-75
2021/12/07 10:42:00;;;;;;;28.35;8.57;;;3.00;99.90;;;;;;5071963;28;19974;-75
2021/12/07 10:44:34;;;;;;;29.02;8.82;;;3.00;99.90;;;;;;5071455;28;20135;-75
2021/12/07 10:47:08;;;;;;;32.85;9.85;;;3.00;99.90;;;;;;5055006;28;20412;-75
2021/12/07 10:49:42;;;;;;;30.00;9.18;;;3.00;99.90;;;;;;5071573;28;20048;-78
2021/12/07 10:52:24;;;;;;;26.90;9.48;;;3.10;99.90;;;;;;5071784;28;20056;-77
2021/12/07 10:54:53;;;;;;;28.48;9.77;;;3.10;99.90;;;;;;5071198;28;20412;-75
2021/12/07 10:57:28;;;;;;;36.25;9.82;;;3.20;99.90;;;;;;5071464;28;20417;-75
2021/12/07 11:00:07;;;;;;;25.38;8.88;;;3.20;99.90;;;;;;5071213;28;20149;-76
2021/12/07 11:02:36;;;;;;;29.65;9.25;;;3.30;99.90;;;;;;5071757;28;20048;-75
2021/12/07 11:05:06;;;;;;;31.52;9.95;;;3.30;99.90;;;;;;5054021;28;20122;-75
2021/12/07 11:07:31;;;;;;;27.95;8.65;;;3.30;99.90;;;;;;5071270;28;20127;-75
2021/12/07 11:10:09;;;;;;;25.05;9.57;;;3.30;99.90;;;;;;5053840;28;20139;-75
2021/12/07 11:12:49;;;;;;;31.25;9.45;;;3.40;99.90;;;;;;5070414;28;20064;-76
2021/12/07 11:15:22;;;;;;;29.98;10.25;;;3.40;99.90;;;;;;5070439;28;20409;-76
2021/12/07 11:17:48;;;;;;;26.85;8.52;;;3.50;99.90;;;;;;5054607;28;20062;-76
2021/12/07 11:20:15;;;;;;;24.65;9.15;;;3.50;99.90;;;;;;5053514;28;20122;-78
2021/12/07 11:22:46;;;;;;;29.83;8.68;;;3.60;99.90;;;;;;5069482;28;20044;-76
2021/12/07 11:25:31;;;;;;;26.10;9.73;;;3.60;99.90;;;;;;5070426;28;20051;-75
2021/12/07 11:30:53;;;;;;;29.98;10.02;;;3.60;99.90;;;;;;5017242;28;20049;-76
2021/12/07 11:33:23;;;;;;;21.08;8.10;;;3.70;99.90;;;;;;5069805;28;20063;-82
2021/12/07 11:35:49;;;;;;;21.65;7.88;;;3.70;99.90;;;;;;5053539;28;20056;-76
2021/12/07 11:38:28;;;;;;;19.17;7.03;;;3.70;99.90;;;;;;5053362;28;20504;-75
2021/12/07 11:41:14;;;;;;;23.60;7.82;;;3.90;99.90;;;;;;5069920;28;20044;-77
2021/12/07 11:43:53;;;;;;;19.13;8.00;;;3.80;99.90;;;;;;5072192;28;20072;-80
2021/12/07 11:46:21;;;;;;;30.77;8.50;;;3.90;99.90;;;;;;5090795;28;20067;-82
2021/12/07 11:48:47;;;;;;;26.27;7.68;;;3.90;99.90;;;;;;5088969;28;20396;-76
2021/12/07 11:51:13;;;;;;;21.27;7.10;;;3.90;99.90;;;;;;5089902;28;20048;-76
2021/12/07 11:53:39;;;;;;;23.60;8.15;;;3.90;99.90;;;;;;5072437;28;20819;-76
2021/12/07 11:56:04;;;;;;;20.20;7.68;;;3.90;99.90;;;;;;5089851;28;20108;-76
2021/12/07 11:58:30;;;;;;;19.25;8.18;;;4.00;99.90;;;;;;5089412;28;20485;-76
2021/12/07 12:00:57;;;;;;;20.98;7.80;;;4.00;99.90;;;;;;5089833;28;20489;-76
2021/12/07 12:03:26;;;;;;;25.35;8.25;;;4.00;99.90;;;;;;5089058;28;20054;-80
2021/12/07 12:05:54;;;;;;;19.10;7.32;;;4.00;99.90;;;;;;5089826;28;20044;-76
2021/12/07 12:08:20;;;;;;;24.25;7.68;;;4.10;99.90;;;;;;5089431;28;20051;-77
2021/12/07 12:11:00;;;;;;;20.05;7.20;;;4.10;99.90;;;;;;5072745;28;20051;-75
2021/12/07 12:13:51;;;;;;;17.83;7.35;;;4.20;99.90;;;;;;5080454;28;20049;-75
2021/12/07 12:16:47;;;;;;;20.50;6.90;;;4.20;99.90;;;;;;5052814;28;20131;-75
2021/12/07 12:19:40;;;;;;;26.00;7.68;;;4.20;99.90;;;;;;5069482;28;20051;-77
2021/12/07 12:22:20;;;;;;;25.98;7.05;;;4.20;99.90;;;;;;5069262;28;20084;-75
2021/12/07 12:24:52;;;;;;;19.23;6.47;;;4.30;99.90;;;;;;5052126;28;20052;-75
2021/12/07 12:27:28;;;;;;;26.95;8.05;;;4.20;99.90;;;;;;5052360;28;20052;-76
2021/12/07 12:29:55;;;;;;;25.13;7.93;;;4.30;99.90;;;;;;5069017;28;20098;-75
2021/12/07 12:32:29;;;;;;;22.13;7.43;;;4.30;99.90;;;;;;5052259;28;20048;-75
2021/12/07 12:34:57;;;;;;;22.42;7.55;;;4.30;99.90;;;;;;5068742;28;20144;-75
2021/12/07 12:37:27;;;;;;;18.17;6.97;;;4.30;99.90;;;;;;5068855;28;20048;-75
2021/12/07 12:40:04;;;;;;;22.05;7.32;;;4.30;99.90;;;;;;5069158;28;20053;-75
2021/12/07 12:42:37;;;;;;;26.52;7.78;;;4.30;99.90;;;;;;5068753;28;20048;-77
2021/12/07 12:45:28;;;;;;;20.67;7.30;;;4.40;99.90;;;;;;5068992;28;20052;-76
2021/12/07 12:48:13;;;;;;;27.92;8.23;;;4.40;99.90;;;;;;5068588;28;20519;-75
2021/12/07 12:50:53;;;;;;;18.25;7.43;;;4.40;99.90;;;;;;5051888;28;20071;-76
2021/12/07 12:53:24;;;;;;;21.85;7.50;;;4.40;99.90;;;;;;5069150;28;20056;-76
2021/12/07 12:55:50;;;;;;;20.02;6.70;;;4.40;99.90;;;;;;5068312;28;20153;-76
2021/12/07 12:58:34;;;;;;;22.90;8.15;;;4.40;99.90;;;;;;5068440;28;20087;-75
2021/12/07 13:01:09;;;;;;;18.38;6.90;;;4.40;99.90;;;;;;5068570;28;20056;-75
2021/12/07 13:04:14;;;;;;;21.52;7.28;;;4.40;99.90;;;;;;5068087;28;20044;-75
2021/12/07 13:09:45;;;;;;;23.77;7.90;;;4.50;99.90;;;;;;5066376;28;20090;-75
2021/12/07 13:12:16;;;;;;;18.85;8.38;;;4.60;99.90;;;;;;5068708;28;20131;-75
2021/12/07 13:14:58;;;;;;;20.38;7.90;;;4.60;99.90;;;;;;5051262;28;20127;-75
2021/12/07 13:17:28;;;;;;;24.10;8.55;;;4.60;99.90;;;;;;5051853;28;20048;-77
2021/12/07 13:20:27;;;;;;;25.75;9.23;;;4.70;99.90;;;;;;5069589;28;20047;-76
2021/12/07 13:23:03;;;;;;;29.17;9.05;;;4.70;99.90;;;;;;5067711;28;20045;-75
2021/12/07 13:25:31;;;;;;;;;;;4.80;99.90;;;;;;5052206;28;20053;-77
2021/12/07 13:28:11;;;;;;;21.00;8.13;;;4.70;99.90;;;;;;5051928;28;19927;-75
2021/12/07 13:30:41;;;;;;;22.88;8.63;;;4.80;99.90;;;;;;5068043;28;20062;-75
2021/12/07 13:33:26;;;;;;;21.05;8.52;;;4.70;99.90;;;;;;5068391;28;20455;-76
2021/12/07 13:35:53;;;;;;;22.80;8.27;;;4.80;99.90;;;;;;5068287;28;20389;-77
2021/12/07 13:38:23;;;;;;;24.63;8.13;;;4.70;99.90;;;;;;5068646;28;20041;-76
2021/12/07 13:40:52;;;;;;;23.25;8.27;;;4.70;99.90;;;;;;5068303;28;20446;-76
2021/12/07 13:43:32;;;;;;;24.80;9.50;;;4.70;99.90;;;;;;5068448;28;20048;-77
2021/12/07 13:46:24;;;;;;;26.15;8.15;;;4.70;99.90;;;;;;5064694;28;20469;-76
2021/12/07 13:48:53;;;;;;;16.95;7.75;;;4.60;99.90;;;;;;5008161;28;20519;-77
2021/12/07 13:51:21;;;;;;;20.25;8.52;;;4.60;99.90;;;;;;5009076;28;20050;-76
2021/12/07 13:53:48;;;;;;;26.77;8.90;;;4.50;99.90;;;;;;5008391;28;20488;-76
2021/12/07 13:56:15;;;;;;;21.52;8.32;;;4.50;99.90;;;;;;5008606;28;20124;-79
2021/12/07 13:59:11;;;;;;;22.55;8.38;;;4.50;99.90;;;;;;5008066;28;20116;-76
2021/12/07 14:01:39;;;;;;;24.35;8.45;;;4.40;99.90;;;;;;5003812;28;20062;-78
2021/12/07 14:04:07;;;;;;;22.40;8.13;;;4.40;99.90;;;;;;4992383;28;20129;-76
2021/12/07 14:06:34;;;;;;;22.10;8.23;;;4.30;99.90;;;;;;4992383;28;20503;-78
2021/12/07 14:09:06;;;;;;;29.00;9.40;;;4.30;99.90;;;;;;4992476;28;20050;-76
2021/12/07 14:11:33;;;;;;;27.20;8.82;;;4.30;99.90;;;;;;5009552;28;20049;-76
2021/12/07 14:13:59;;;;;;;21.75;9.68;;;4.20;99.90;;;;;;5025479;28;20060;-76
2021/12/07 14:16:27;;;;;;;21.27;8.40;;;4.10;99.90;;;;;;5032809;28;20053;-76
2021/12/07 14:18:53;;;;;;;19.70;8.82;;;4.00;99.90;;;;;;5031134;28;20072;-81
2021/12/07 14:21:19;;;;;;;21.52;9.25;;;4.00;99.90;;;;;;5015168;28;20395;-76
2021/12/07 14:23:48;;;;;;;23.77;10.23;;;4.00;99.90;;;;;;5014531;28;20045;-76
2021/12/07 14:26:24;;;;;;;21.98;9.48;;;3.90;99.90;;;;;;5031363;28;20049;-77
2021/12/07 14:29:04;;;;;;;34.08;10.75;;;3.90;99.90;;;;;;5031283;28;20058;-76
2021/12/07 14:31:44;;;;;;;32.95;11.07;;;3.80;99.90;;;;;;5031791;28;20477;-76
2021/12/07 14:34:33;;;;;;;37.45;10.82;;;3.80;99.90;;;;;;5014978;28;20111;-76
2021/12/07 14:37:00;;;;;;;31.38;10.20;;;3.70;99.90;;;;;;5025764;28;20405;-75
2021/12/07 14:39:40;;;;;;;24.08;10.13;;;3.70;99.90;;;;;;5031782;28;20081;-75
2021/12/07 14:42:15;;;;;;;28.58;11.07;;;3.70;99.90;;;;;;5030805;28;20049;-75
2021/12/07 14:44:45;;;;;;;27.00;11.80;;;3.60;99.90;;;;;;5041941;28;20494;-84